SILO ALERT LOG


Silo ID Alert Type Alert Message Silo Type Points Depth (mm) Strength Temperature (°C) Humidity (%) Height (mm) Volume (㎥) Weight (t) Flag Time
DJHNR01 Humidity 습도센서 측정값이 80% 초과 호퍼 471 4315 4910 5.8 99 11064 472.262 298.564 13 2024-01-13 22:39:33.000
DJSSD05 Temperature 온도센서 측정값이 0도 미만 849 2544 4886 -45.4 43.5 5535 770.41 487.053 0 2024-01-13 22:39:33.000
DJSSD01 Humidity 습도센서 측정값이 80% 초과 801 2579 4708 5.7 83.4 5500 765.537 483.973 0 2024-01-13 22:39:33.000
DJSSD04 Temperature 온도센서 상태 이상 0 8200 0 -999 -999 -120 -16.702 0 31 2024-01-13 22:39:33.000
DJHNR11 Temperature 온도센서 측정값이 0도 미만 호퍼 125 1804 3292 -1.9 74.4 8575 131.028 82.836 11 2024-01-13 22:39:33.000
DJSAD08 Humidity 습도센서 측정값이 80% 초과 590 2318 4931 8.2 83.8 5261 748.676 473.313 12 2024-01-13 22:39:32.000
DJSSD09 Temperature 온도센서 측정값이 0도 미만 124 2893 3546 -45.4 0 4786 666.224 421.187 11 2024-01-13 22:39:32.000
DJSSD11 Temperature 온도센서 측정값이 0도 미만 호퍼 445 7390 155 -3.7 62.3 3839 28.88 15.74 0 2024-01-13 22:39:31.000
DJSAD17 Humidity 습도센서 측정값이 80% 초과 449 3127 4895 4.9 82 4452 443.339 280.279 0 2024-01-13 22:39:31.000
DJHNR14 Temperature 온도센서 측정값이 0도 미만 호퍼 44 2961 4351 -2.7 73.8 7418 106.072 67.059 11 2024-01-13 22:39:31.000
DJDJD04 Humidity 습도센서 측정값이 80% 초과 277 4211 4464 4.7 81.4 3468 420.272 265.696 11 2024-01-13 22:39:31.000
DJHNR13 Temperature 온도센서 측정값이 0도 미만 호퍼 28 2351 3027 -1.9 69.7 8028 119.225 75.374 0 2024-01-13 22:39:30.000
DJSAD18 Humidity 습도센서 측정값이 80% 초과 121 1403 5813 5.8 80.8 6176 615.032 388.823 11 2024-01-13 22:39:30.000
DJHNR03 Temperature 온도센서 상태 이상 호퍼 0 15500 0 -999 -999 -119 0 0 31 2024-01-13 22:39:24.000
DJSSD12 Temperature 온도센서 상태 이상 호퍼 0 11350 0 -999 -999 -120 0 0 31 2024-01-13 22:39:24.000
DJHNR12 Temperature 온도센서 측정값이 0도 미만 호퍼 0 10500 0 -0.9 77 -120 0 0 31 2024-01-13 22:39:23.000
DJSAD02 Humidity 습도센서 측정값이 80% 초과 391 1134 4317 2.6 84.9 7645 316.51 200.098 11 2024-01-13 21:39:39.000
DJSAD01 Humidity 습도센서 측정값이 80% 초과 447 1555 7458 2.1 84 7224 299.078 189.077 0 2024-01-13 21:39:39.000
DJDJD03 Humidity 습도센서 측정값이 80% 초과 57 4938 5171 3.8 81.2 2741 332.132 209.974 0 2024-01-13 21:39:39.000
DJSAD03 Humidity 습도센서 측정값이 80% 초과 449 1826 6194 4 84.5 6953 287.849 181.978 0 2024-01-13 21:39:39.000

[첫 페이지] [9957] [9958] [9959] [9960] 9961 [9962] [9963] [9964] [9965] [마지막 페이지]